createdAt,value
2016-02-26T00:00:13.185Z,0
2016-02-26T00:01:13.171Z,0
2016-02-26T00:02:13.144Z,0
2016-02-26T00:03:13.115Z,0
2016-02-26T00:04:13.087Z,0
2016-02-26T00:05:12.964Z,0
2016-02-26T00:06:13.045Z,0
2016-02-26T00:07:13.048Z,0
2016-02-26T00:08:12.987Z,0
2016-02-26T00:09:12.959Z,0
2016-02-26T00:10:12.977Z,0
2016-02-26T00:11:12.917Z,0
2016-02-26T00:12:12.920Z,0
2016-02-26T00:13:12.876Z,0
2016-02-26T00:14:12.863Z,0
2016-02-26T00:15:12.820Z,0
2016-02-26T00:16:12.806Z,0
2016-02-26T00:17:12.762Z,0
2016-02-26T00:18:12.749Z,0
2016-02-26T00:19:12.736Z,0
2016-02-26T00:20:12.708Z,0
2016-02-26T00:21:12.679Z,0
2016-02-26T00:22:12.556Z,0
2016-02-26T00:23:12.622Z,0
2016-02-26T00:24:12.624Z,0
2016-02-26T00:25:12.611Z,0
2016-02-26T00:26:12.536Z,0
2016-02-26T00:27:12.710Z,0
2016-02-26T00:28:12.589Z,0
2016-02-26T00:29:12.482Z,0
2016-02-26T00:30:12.468Z,0
2016-02-26T00:31:12.440Z,0
2016-02-26T00:32:12.412Z,0
2016-02-26T00:33:12.399Z,0
2016-02-26T00:34:12.354Z,0
2016-02-26T00:35:12.326Z,0
2016-02-26T00:36:12.376Z,0
2016-02-26T00:37:12.284Z,0
2016-02-26T00:38:12.537Z,0
2016-02-26T00:39:12.289Z,0
2016-02-26T00:40:12.214Z,0
2016-02-26T00:41:12.217Z,0
2016-02-26T00:42:12.220Z,0
2016-02-26T00:43:12.191Z,0
2016-02-26T00:44:12.100Z,0
2016-02-26T00:45:12.118Z,0
2016-02-26T00:46:12.059Z,0
2016-02-26T00:47:12.045Z,0
2016-02-26T00:48:12.033Z,0
2016-02-26T00:49:12.003Z,0
2016-02-26T00:50:11.975Z,0
2016-02-26T00:51:11.931Z,0
2016-02-26T00:52:11.919Z,0
2016-02-26T00:53:11.875Z,0
2016-02-26T00:54:12.080Z,0
2016-02-26T00:55:11.833Z,0
2016-02-26T00:56:11.835Z,0
2016-02-26T00:57:11.791Z,0
2016-02-26T00:58:11.794Z,0
2016-02-26T00:59:11.735Z,0
2016-02-26T01:00:11.722Z,0
2016-02-26T01:01:11.708Z,0
2016-02-26T01:02:11.679Z,0
2016-02-26T01:03:11.651Z,0
2016-02-26T01:04:11.624Z,0
2016-02-26T01:05:11.579Z,0
2016-02-26T01:06:11.582Z,0
2016-02-26T01:07:11.552Z,0
2016-02-26T01:08:11.509Z,0
2016-02-26T01:09:11.870Z,0
2016-02-26T01:10:11.467Z,0
2016-02-26T01:11:11.454Z,0
2016-02-26T01:12:11.414Z,0
2016-02-26T01:13:11.389Z,0
2016-02-26T01:14:11.379Z,0
2016-02-26T01:15:11.308Z,0
2016-02-26T01:16:11.298Z,0
2016-02-26T01:17:11.249Z,0
2016-02-26T01:18:11.231Z,0
2016-02-26T01:19:11.168Z,0
2016-02-26T01:20:11.150Z,0
2016-02-26T01:21:11.117Z,0
2016-02-26T01:22:11.134Z,0
2016-02-26T01:23:11.089Z,0
2016-02-26T01:24:11.246Z,0
2016-02-26T01:25:11.059Z,0
2016-02-26T01:26:10.982Z,0
2016-02-26T01:27:10.984Z,0
2016-02-26T01:28:10.955Z,0
2016-02-26T01:29:10.941Z,0
2016-02-26T01:30:10.881Z,0
2016-02-26T01:31:10.867Z,0
2016-02-26T01:32:10.838Z,0
2016-02-26T01:33:10.810Z,0
2016-02-26T01:34:10.827Z,0
2016-02-26T01:35:10.800Z,0
2016-02-26T01:36:10.740Z,0
2016-02-26T01:37:10.743Z,0
2016-02-26T01:38:10.698Z,0
2016-02-26T01:39:10.669Z,0
2016-02-26T01:40:10.922Z,0
2016-02-26T01:41:10.613Z,0
2016-02-26T01:42:10.599Z,0
2016-02-26T01:43:10.587Z,0
2016-02-26T01:44:10.543Z,0
2016-02-26T01:45:10.623Z,0
2016-02-26T01:46:10.517Z,0
2016-02-26T01:47:10.488Z,0
2016-02-26T01:48:10.476Z,0
2016-02-26T01:49:10.446Z,0
2016-02-26T01:50:10.403Z,0
2016-02-26T01:51:10.405Z,0
2016-02-26T01:52:10.376Z,0
2016-02-26T01:53:10.348Z,0
2016-02-26T01:54:10.304Z,0
2016-02-26T01:55:10.275Z,0
2016-02-26T01:56:10.247Z,0
2016-02-26T01:57:10.297Z,0
2016-02-26T01:58:10.206Z,0
2016-02-26T01:59:10.177Z,0
2016-02-26T02:00:10.164Z,0
2016-02-26T02:01:10.150Z,0
2016-02-26T02:02:10.091Z,0
2016-02-26T02:03:10.078Z,0
2016-02-26T02:04:10.049Z,0
2016-02-26T02:05:10.021Z,0
2016-02-26T02:06:10.008Z,0
2016-02-26T02:07:09.995Z,0
2016-02-26T02:08:09.826Z,0
2016-02-26T02:09:09.938Z,0
2016-02-26T02:10:09.909Z,0
2016-02-26T02:11:09.866Z,0
2016-02-26T02:12:09.852Z,0
2016-02-26T02:13:09.840Z,0
2016-02-26T02:14:09.810Z,0
2016-02-26T02:15:09.798Z,0
2016-02-26T02:16:09.754Z,0
2016-02-26T02:17:09.740Z,0
2016-02-26T02:18:09.696Z,0
2016-02-26T02:19:09.684Z,0
2016-02-26T02:20:09.670Z,0
2016-02-26T02:21:09.907Z,0
2016-02-26T02:22:09.629Z,0
2016-02-26T02:23:09.584Z,0
2016-02-26T02:24:09.556Z,0
2016-02-26T02:25:09.528Z,0
2016-02-26T02:26:09.609Z,0
2016-02-26T02:27:09.486Z,0
2016-02-26T02:28:09.473Z,0
2016-02-26T02:29:09.445Z,0
2016-02-26T02:30:09.417Z,0
2016-02-26T02:31:09.388Z,0
2016-02-26T02:32:09.359Z,0
2016-02-26T02:33:09.330Z,0
2016-02-26T02:34:09.318Z,0
2016-02-26T02:35:09.289Z,0
2016-02-26T02:36:09.261Z,0
2016-02-26T02:37:09.482Z,0
2016-02-26T02:38:09.219Z,0
2016-02-26T02:39:09.205Z,0
2016-02-26T02:40:09.146Z,0
2016-02-26T02:41:09.243Z,0
2016-02-26T02:42:09.121Z,0
2016-02-26T02:43:09.077Z,0
2016-02-26T02:44:09.079Z,0
2016-02-26T02:45:09.050Z,0
2016-02-26T02:46:09.006Z,0
2016-02-26T02:47:09.010Z,0
2016-02-26T02:48:08.980Z,0
2016-02-26T02:49:08.937Z,0
2016-02-26T02:50:08.923Z,0
2016-02-26T02:51:08.879Z,0
2016-02-26T02:52:08.834Z,0
2016-02-26T02:53:08.837Z,0
2016-02-26T02:54:08.809Z,0
2016-02-26T02:55:08.781Z,0
2016-02-26T02:56:08.768Z,0
2016-02-26T02:57:08.754Z,0
2016-02-26T02:58:08.725Z,0
2016-02-26T02:59:08.681Z,0
2016-02-26T03:00:08.670Z,0
2016-02-26T03:01:08.656Z,0
2016-02-26T03:02:08.628Z,0
2016-02-26T03:03:08.583Z,0
2016-02-26T03:04:08.602Z,0
2016-02-26T03:05:08.573Z,0
2016-02-26T03:06:08.533Z,0
2016-02-26T03:07:08.489Z,0
2016-02-26T03:08:08.524Z,0
2016-02-26T03:09:08.433Z,0
2016-02-26T03:10:08.420Z,0
2016-02-26T03:11:08.422Z,0
2016-02-26T03:12:08.364Z,0
2016-02-26T03:13:08.397Z,0
2016-02-26T03:14:08.338Z,0
2016-02-26T03:15:08.309Z,0
2016-02-26T03:16:08.327Z,0
2016-02-26T03:17:08.267Z,0
2016-02-26T03:18:08.473Z,0
2016-02-26T03:19:08.210Z,0
2016-02-26T03:20:08.166Z,0
2016-02-26T03:21:08.153Z,0
2016-02-26T03:22:08.109Z,0
2016-02-26T03:23:08.127Z,0
2016-02-26T03:24:08.067Z,0
2016-02-26T03:25:08.086Z,0
2016-02-26T03:26:08.010Z,0
2016-02-26T03:27:08.029Z,0
2016-02-26T03:28:07.843Z,0
2016-02-26T03:29:08.424Z,0
2016-02-26T03:30:07.927Z,0
2016-02-26T03:31:07.915Z,0
2016-02-26T03:32:07.901Z,0
2016-02-26T03:33:07.857Z,0
2016-02-26T03:34:07.937Z,0
2016-02-26T03:35:07.925Z,0
2016-02-26T03:36:07.787Z,0
2016-02-26T03:37:07.805Z,0
2016-02-26T03:38:07.746Z,0
2016-02-26T03:39:07.686Z,0
2016-02-26T03:40:07.689Z,0
2016-02-26T03:41:07.644Z,0
2016-02-26T03:42:07.631Z,0
2016-02-26T03:43:07.650Z,0
2016-02-26T03:44:07.637Z,0
2016-02-26T03:45:07.546Z,0
2016-02-26T03:46:07.517Z,0
2016-02-26T03:47:07.535Z,0
2016-02-26T03:48:07.491Z,0
2016-02-26T03:49:07.447Z,0
2016-02-26T03:50:07.434Z,0
2016-02-26T03:51:07.391Z,0
2016-02-26T03:52:07.393Z,0
2016-02-26T03:53:07.348Z,0
2016-02-26T03:54:07.366Z,0
2016-02-26T03:55:07.291Z,0
2016-02-26T03:56:07.341Z,0
2016-02-26T03:57:07.235Z,0
2016-02-26T03:58:07.252Z,0
2016-02-26T03:59:07.209Z,0
2016-02-26T04:00:07.179Z,0
2016-02-26T04:01:07.151Z,0
2016-02-26T04:02:07.170Z,0
2016-02-26T04:03:07.095Z,0
2016-02-26T04:04:07.128Z,0
2016-02-26T04:05:06.881Z,0
2016-02-26T04:06:07.055Z,0
2016-02-26T04:07:06.995Z,0
2016-02-26T04:08:06.967Z,0
2016-02-26T04:09:06.938Z,0
2016-02-26T04:10:06.909Z,0
2016-02-26T04:11:06.912Z,0
2016-02-26T04:12:06.868Z,0
2016-02-26T04:13:06.871Z,0
2016-02-26T04:14:06.828Z,0
2016-02-26T04:15:06.830Z,0
2016-02-26T04:16:06.770Z,0
2016-02-26T04:17:06.757Z,0
2016-02-26T04:18:06.713Z,0
2016-02-26T04:19:06.715Z,0
2016-02-26T04:20:06.671Z,0
2016-02-26T04:21:06.908Z,0
2016-02-26T04:22:06.614Z,0
2016-02-26T04:23:06.601Z,0
2016-02-26T04:24:06.572Z,0
2016-02-26T04:25:06.559Z,0
2016-02-26T04:26:06.734Z,0
2016-02-26T04:27:06.535Z,0
2016-02-26T04:28:06.490Z,0
2016-02-26T04:29:06.446Z,0
2016-02-26T04:30:06.432Z,0
2016-02-26T04:31:06.420Z,0
2016-02-26T04:32:06.406Z,0
2016-02-26T04:33:06.347Z,0
2016-02-26T04:34:06.381Z,0
2016-02-26T04:35:06.306Z,0
2016-02-26T04:36:06.276Z,0
2016-02-26T04:37:06.248Z,0
2016-02-26T04:38:06.250Z,0
2016-02-26T04:39:06.206Z,0
2016-02-26T04:40:06.163Z,0
2016-02-26T04:41:06.150Z,0
2016-02-26T04:42:06.120Z,0
2016-02-26T04:43:06.139Z,0
2016-02-26T04:44:06.080Z,0
2016-02-26T04:45:06.067Z,0
2016-02-26T04:46:06.054Z,0
2016-02-26T04:47:06.009Z,0
2016-02-26T04:48:06.012Z,0
2016-02-26T04:49:05.936Z,0
2016-02-26T04:50:05.939Z,0
2016-02-26T04:51:05.894Z,0
2016-02-26T04:52:05.866Z,0
2016-02-26T04:53:05.855Z,0
2016-02-26T04:54:05.872Z,0
2016-02-26T04:55:05.843Z,0
2016-02-26T04:56:05.768Z,0
2016-02-26T04:57:05.754Z,0
2016-02-26T04:58:05.571Z,0
2016-02-26T04:59:05.714Z,0
2016-02-26T05:00:05.669Z,0
2016-02-26T05:01:05.672Z,0
2016-02-26T05:02:05.643Z,0
2016-02-26T05:03:05.615Z,0
2016-02-26T05:04:05.617Z,0
2016-02-26T05:05:05.563Z,0
2016-02-26T05:06:05.394Z,0
2016-02-26T05:07:05.507Z,0
2016-02-26T05:08:05.353Z,0
2016-02-26T05:09:05.465Z,0
2016-02-26T05:10:05.437Z,0
2016-02-26T05:11:05.424Z,0
2016-02-26T05:12:05.395Z,0
2016-02-26T05:13:05.367Z,0
2016-02-26T05:14:05.323Z,0
2016-02-26T05:15:05.309Z,0
2016-02-26T05:16:05.281Z,0
2016-02-26T05:17:05.252Z,0
2016-02-26T05:18:05.224Z,0
2016-02-26T05:19:05.195Z,0
2016-02-26T05:20:05.182Z,0
2016-02-26T05:21:05.153Z,0
2016-02-26T05:22:05.141Z,0
2016-02-26T05:23:05.206Z,0
2016-02-26T05:24:05.114Z,0
2016-02-26T05:25:05.070Z,0
2016-02-26T05:26:05.042Z,0
2016-02-26T05:27:04.998Z,0
2016-02-26T05:28:04.985Z,0
2016-02-26T05:29:04.972Z,0
2016-02-26T05:30:04.958Z,0
2016-02-26T05:31:04.900Z,0
2016-02-26T05:32:04.871Z,0
2016-02-26T05:33:04.841Z,0
2016-02-26T05:34:05.094Z,0
2016-02-26T05:35:04.816Z,0
2016-02-26T05:36:04.788Z,0
2016-02-26T05:37:04.760Z,0
2016-02-26T05:38:04.715Z,0
2016-02-26T05:39:04.702Z,0
2016-02-26T05:40:04.704Z,0
2016-02-26T05:41:04.645Z,0
2016-02-26T05:42:04.647Z,0
2016-02-26T05:43:04.634Z,0
2016-02-26T05:44:04.575Z,0
2016-02-26T05:45:04.562Z,0
2016-02-26T05:46:04.534Z,0
2016-02-26T05:47:04.489Z,0
2016-02-26T05:48:04.539Z,0
2016-02-26T05:49:04.479Z,0
2016-02-26T05:50:04.435Z,0
2016-02-26T05:51:04.406Z,0
2016-02-26T05:52:04.362Z,0
2016-02-26T05:53:04.350Z,0
2016-02-26T05:54:04.321Z,0
2016-02-26T05:55:04.292Z,0
2016-02-26T05:56:04.278Z,0
2016-02-26T05:57:04.236Z,0
2016-02-26T05:58:04.222Z,0
2016-02-26T05:59:04.208Z,0
2016-02-26T06:00:04.164Z,0
2016-02-26T06:01:04.136Z,0
2016-02-26T06:02:04.124Z,0
2016-02-26T06:03:04.111Z,0
2016-02-26T06:04:04.082Z,0
2016-02-26T06:05:04.053Z,0
2016-02-26T06:06:04.024Z,0
2016-02-26T06:07:03.996Z,0
2016-02-26T06:08:04.015Z,0
2016-02-26T06:09:03.986Z,0
2016-02-26T06:10:03.941Z,0
2016-02-26T06:11:03.960Z,0
2016-02-26T06:12:03.884Z,0
2016-02-26T06:13:03.903Z,0
2016-02-26T06:14:03.827Z,0
2016-02-26T06:15:03.815Z,0
2016-02-26T06:16:03.615Z,0
2016-02-26T06:17:03.757Z,0
2016-02-26T06:18:03.713Z,0
2016-02-26T06:19:03.715Z,0
2016-02-26T06:20:03.828Z,0
2016-02-26T06:21:03.674Z,0
2016-02-26T06:22:03.615Z,0
2016-02-26T06:23:03.617Z,0
2016-02-26T06:24:03.573Z,0
2016-02-26T06:25:03.560Z,0
2016-02-26T06:26:03.516Z,0
2016-02-26T06:27:03.519Z,0
2016-02-26T06:28:03.489Z,0
2016-02-26T06:29:03.322Z,0
2016-02-26T06:30:03.417Z,0
2016-02-26T06:31:03.420Z,0
2016-02-26T06:32:03.360Z,0
2016-02-26T06:33:03.363Z,0
2016-02-26T06:34:03.318Z,0
2016-02-26T06:35:03.322Z,0
2016-02-26T06:36:03.277Z,0
2016-02-26T06:37:03.280Z,0
2016-02-26T06:38:03.220Z,0
2016-02-26T06:39:03.254Z,0
2016-02-26T06:40:03.178Z,0
2016-02-26T06:41:03.197Z,0
2016-02-26T06:42:03.122Z,0
2016-02-26T06:43:03.089Z,0
2016-02-26T06:44:03.075Z,0
2016-02-26T06:45:03.063Z,0
2016-02-26T06:46:03.020Z,0
2016-02-26T06:47:02.991Z,0
2016-02-26T06:48:02.961Z,0
2016-02-26T06:49:02.949Z,0
2016-02-26T06:50:02.764Z,0
2016-02-26T06:51:02.939Z,0
2016-02-26T06:52:02.894Z,0
2016-02-26T06:53:02.866Z,0
2016-02-26T06:54:02.838Z,0
2016-02-26T06:55:02.809Z,0
2016-02-26T06:56:02.796Z,0
2016-02-26T06:57:02.751Z,5
2016-02-26T06:58:02.566Z,5
2016-02-26T06:59:02.710Z,5
2016-02-26T07:00:02.666Z,5
2016-02-26T07:01:02.654Z,5
2016-02-26T07:02:02.656Z,5
2016-02-26T07:03:02.596Z,5
2016-02-26T07:04:02.567Z,5
2016-02-26T07:05:02.398Z,5
2016-02-26T07:06:02.713Z,5
2016-02-26T07:07:02.498Z,5
2016-02-26T07:08:02.469Z,5
2016-02-26T07:09:02.456Z,5
2016-02-26T07:10:02.427Z,5
2016-02-26T07:11:02.398Z,5
2016-02-26T07:12:02.371Z,5
2016-02-26T07:13:02.357Z,5
2016-02-26T07:14:02.329Z,5
2016-02-26T07:15:02.191Z,5
2016-02-26T07:16:02.272Z,5
2016-02-26T07:17:02.492Z,5
2016-02-26T07:18:02.230Z,5
2016-02-26T07:19:02.201Z,5
2016-02-26T07:20:02.173Z,5
2016-02-26T07:21:02.145Z,5
2016-02-26T07:22:02.178Z,5
2016-02-26T07:23:02.119Z,5
2016-02-26T07:24:02.074Z,5
2016-02-26T07:25:02.047Z,5
2016-02-26T07:26:02.017Z,5
2016-02-26T07:27:01.989Z,5
2016-02-26T07:28:02.319Z,5
2016-02-26T07:29:01.979Z,10
2016-02-26T07:30:01.934Z,10
2016-02-26T07:31:01.905Z,10
2016-02-26T07:32:01.876Z,10
2016-02-26T07:33:01.708Z,10
2016-02-26T07:34:01.852Z,10
2016-02-26T07:35:01.791Z,10
2016-02-26T07:36:01.763Z,10
2016-02-26T07:37:01.734Z,10
2016-02-26T07:38:01.721Z,10
2016-02-26T07:39:01.693Z,10
2016-02-26T07:40:01.665Z,10
2016-02-26T07:41:01.651Z,10
2016-02-26T07:42:01.639Z,10
2016-02-26T07:43:01.609Z,10
2016-02-26T07:44:01.597Z,10
2016-02-26T07:45:01.583Z,10
2016-02-26T07:46:01.540Z,10
2016-02-26T07:47:01.356Z,10
2016-02-26T07:48:01.467Z,10
2016-02-26T07:49:01.470Z,10
2016-02-26T07:50:01.425Z,10
2016-02-26T07:51:01.397Z,10
2016-02-26T07:52:01.383Z,10
2016-02-26T07:53:01.356Z,10
2016-02-26T07:54:01.327Z,10
2016-02-26T07:55:01.314Z,10
2016-02-26T07:56:01.301Z,10
2016-02-26T07:57:01.257Z,10
2016-02-26T07:58:01.259Z,10
2016-02-26T07:59:01.341Z,10
2016-02-26T08:00:01.203Z,10
2016-02-26T08:01:01.174Z,10
2016-02-26T08:02:01.130Z,10
2016-02-26T08:03:01.335Z,10
2016-02-26T08:04:01.073Z,15
2016-02-26T08:05:01.090Z,15
2016-02-26T08:06:01.046Z,15
2016-02-26T08:07:01.002Z,15
2016-02-26T08:08:01.021Z,15
2016-02-26T08:09:00.962Z,15
2016-02-26T08:10:00.932Z,10
2016-02-26T08:11:00.951Z,10
2016-02-26T08:12:00.923Z,15
2016-02-26T08:13:00.847Z,15
2016-02-26T08:14:00.850Z,15
2016-02-26T08:15:00.806Z,15
2016-02-26T08:16:00.776Z,15
2016-02-26T08:17:00.764Z,15
2016-02-26T08:18:00.720Z,15
2016-02-26T08:19:00.909Z,15
2016-02-26T08:20:00.678Z,15
2016-02-26T08:21:00.650Z,15
2016-02-26T08:22:00.636Z,15
2016-02-26T08:23:00.624Z,15
2016-02-26T08:24:00.611Z,15
2016-02-26T08:25:00.567Z,15
2016-02-26T08:26:00.553Z,20
2016-02-26T08:27:00.510Z,20
2016-02-26T08:28:00.481Z,20
2016-02-26T08:29:00.515Z,20
2016-02-26T08:30:00.439Z,20
2016-02-26T08:31:00.411Z,20
2016-02-26T08:32:00.382Z,20
2016-02-26T08:33:00.416Z,20
2016-02-26T08:34:00.404Z,20
2016-02-26T08:35:00.327Z,20
2016-02-26T08:36:00.440Z,20
2016-02-26T08:37:00.255Z,20
2016-02-26T08:38:00.257Z,20
2016-02-26T08:39:00.260Z,20
2016-02-26T08:40:00.215Z,20
2016-02-26T08:41:00.172Z,20
2016-02-26T08:42:00.159Z,20
2016-02-26T08:43:00.146Z,20
2016-02-26T08:44:00.008Z,20
2016-02-26T08:45:00.059Z,20
2016-02-26T08:46:00.045Z,20
2016-02-26T08:47:00.001Z,20
2016-02-26T08:47:59.987Z,25
2016-02-26T08:48:59.959Z,25
2016-02-26T08:49:59.947Z,20
2016-02-26T08:50:59.933Z,20
2016-02-26T08:51:59.889Z,20
2016-02-26T08:52:59.986Z,20
2016-02-26T08:53:59.878Z,25
2016-02-26T08:54:59.819Z,25
2016-02-26T08:55:59.869Z,25
2016-02-26T08:56:59.778Z,25
2016-02-26T08:57:59.749Z,25
2016-02-26T08:58:59.814Z,25
2016-02-26T08:59:59.942Z,25
2016-02-26T09:00:59.679Z,25
2016-02-26T09:01:59.494Z,25
2016-02-26T09:02:59.638Z,25
2016-02-26T09:03:59.610Z,25
2016-02-26T09:04:59.518Z,25
2016-02-26T09:05:59.568Z,25
2016-02-26T09:06:59.539Z,25
2016-02-26T09:07:59.510Z,25
2016-02-26T09:08:59.482Z,25
2016-02-26T09:09:59.469Z,30
2016-02-26T09:10:59.440Z,30
2016-02-26T09:11:59.427Z,30
2016-02-26T09:12:59.384Z,30
2016-02-26T09:13:59.354Z,30
2016-02-26T09:14:59.342Z,30
2016-02-26T09:15:59.532Z,30
2016-02-26T09:16:59.285Z,30
2016-02-26T09:17:59.100Z,30
2016-02-26T09:18:59.228Z,30
2016-02-26T09:19:59.215Z,30
2016-02-26T09:20:59.295Z,30
2016-02-26T09:21:59.173Z,30
2016-02-26T09:22:59.160Z,30
2016-02-26T09:23:59.116Z,30
2016-02-26T09:24:59.087Z,30
2016-02-26T09:25:59.058Z,30
2016-02-26T09:26:59.030Z,30
2016-02-26T09:27:59.017Z,30
2016-02-26T09:28:59.036Z,30
2016-02-26T09:29:58.960Z,30
2016-02-26T09:30:58.963Z,30
2016-02-26T09:31:58.919Z,30
2016-02-26T09:32:58.905Z,30
2016-02-26T09:33:58.893Z,30
2016-02-26T09:34:58.864Z,30
2016-02-26T09:35:58.820Z,30
2016-02-26T09:36:58.823Z,30
2016-02-26T09:37:58.762Z,30
2016-02-26T09:38:58.766Z,30
2016-02-26T09:39:58.799Z,30
2016-02-26T09:40:58.724Z,35
2016-02-26T09:41:58.665Z,35
2016-02-26T09:42:58.698Z,35
2016-02-26T09:43:58.638Z,35
2016-02-26T09:44:58.609Z,35
2016-02-26T09:45:58.582Z,35
2016-02-26T09:46:58.553Z,35
2016-02-26T09:47:58.539Z,35
2016-02-26T09:48:58.511Z,35
2016-02-26T09:49:58.514Z,35
2016-02-26T09:50:58.470Z,35
2016-02-26T09:51:58.489Z,35
2016-02-26T09:52:58.413Z,35
2016-02-26T09:53:58.384Z,35
2016-02-26T09:54:58.372Z,35
2016-02-26T09:55:58.343Z,35
2016-02-26T09:56:58.330Z,35
2016-02-26T09:57:58.317Z,35
2016-02-26T09:58:58.272Z,35
2016-02-26T09:59:58.275Z,35
2016-02-26T10:00:58.231Z,35
2016-02-26T10:01:58.405Z,35
2016-02-26T10:02:58.158Z,35
2016-02-26T10:03:58.146Z,35
2016-02-26T10:04:58.116Z,35
2016-02-26T10:05:58.104Z,35
2016-02-26T10:06:58.154Z,35
2016-02-26T10:07:58.062Z,35
2016-02-26T10:08:58.034Z,35
2016-02-26T10:09:58.020Z,35
2016-02-26T10:10:58.008Z,35
2016-02-26T10:11:57.995Z,35
2016-02-26T10:12:57.935Z,40
2016-02-26T10:13:57.938Z,40
2016-02-26T10:14:57.894Z,40
2016-02-26T10:15:57.865Z,40
2016-02-26T10:16:57.865Z,40
2016-02-26T10:17:58.090Z,40
2016-02-26T10:18:57.768Z,35
2016-02-26T10:19:57.744Z,35
2016-02-26T10:20:57.690Z,35
2016-02-26T10:21:57.650Z,35
2016-02-26T10:22:57.634Z,35
2016-02-26T10:23:57.600Z,35
2016-02-26T10:24:57.582Z,35
2016-02-26T10:25:57.549Z,35
2016-02-26T10:26:57.548Z,35
2016-02-26T10:27:57.503Z,35
2016-02-26T10:28:57.472Z,35
2016-02-26T10:29:57.473Z,35
2016-02-26T10:30:57.412Z,35
2016-02-26T10:31:57.398Z,35
2016-02-26T10:32:57.369Z,35
2016-02-26T10:33:57.341Z,40
2016-02-26T10:34:57.326Z,40
2016-02-26T10:35:57.329Z,40
2016-02-26T10:36:57.284Z,40
2016-02-26T10:37:57.255Z,40
2016-02-26T10:38:57.210Z,40
2016-02-26T10:39:57.182Z,40
2016-02-26T10:40:57.168Z,40
2016-02-26T10:41:57.265Z,40
2016-02-26T10:42:57.112Z,40
2016-02-26T10:43:57.098Z,40
2016-02-26T10:44:57.070Z,45
2016-02-26T10:45:57.042Z,40
2016-02-26T10:46:57.044Z,35
2016-02-26T10:47:56.859Z,30
2016-02-26T10:48:56.987Z,30
2016-02-26T10:49:56.817Z,35
2016-02-26T10:50:56.946Z,40
2016-02-26T10:51:56.917Z,40
2016-02-26T10:52:56.873Z,45
2016-02-26T10:53:56.859Z,45
2016-02-26T10:54:56.847Z,45
2016-02-26T10:55:56.661Z,45
2016-02-26T10:56:56.836Z,45
2016-02-26T10:57:56.761Z,50
2016-02-26T10:58:57.030Z,50
2016-02-26T10:59:56.735Z,50
2016-02-26T11:00:56.691Z,50
2016-02-26T11:01:56.663Z,50
2016-02-26T11:02:56.665Z,45
2016-02-26T11:03:56.840Z,45
2016-02-26T11:04:56.608Z,50
2016-02-26T11:05:56.579Z,50
2016-02-26T11:06:56.566Z,50
2016-02-26T11:07:56.537Z,50
2016-02-26T11:08:56.572Z,50
2016-02-26T11:09:56.544Z,50
2016-02-26T11:10:56.499Z,50
2016-02-26T11:11:56.423Z,50
2016-02-26T11:12:56.427Z,50
2016-02-26T11:13:56.429Z,50
2016-02-26T11:14:56.385Z,50
2016-02-26T11:15:56.356Z,55
2016-02-26T11:16:56.343Z,55
2016-02-26T11:17:56.299Z,50
2016-02-26T11:18:56.833Z,50
2016-02-26T11:19:56.320Z,50
2016-02-26T11:20:56.339Z,50
2016-02-26T11:21:56.200Z,50
2016-02-26T11:22:56.187Z,50
2016-02-26T11:23:56.143Z,50
2016-02-26T11:24:56.146Z,50
2016-02-26T11:25:56.117Z,50
2016-02-26T11:26:56.089Z,50
2016-02-26T11:27:56.075Z,50
2016-02-26T11:28:56.033Z,50
2016-02-26T11:29:56.019Z,50
2016-02-26T11:30:55.991Z,50
2016-02-26T11:31:56.024Z,50
2016-02-26T11:32:55.949Z,50
2016-02-26T11:33:55.952Z,55
2016-02-26T11:34:55.938Z,55
2016-02-26T11:35:55.879Z,60
2016-02-26T11:36:55.866Z,55
2016-02-26T11:37:55.853Z,55
2016-02-26T11:38:55.903Z,50
2016-02-26T11:39:55.812Z,50
2016-02-26T11:40:55.782Z,55
2016-02-26T11:41:55.739Z,50
2016-02-26T11:42:55.741Z,50
2016-02-26T11:43:55.713Z,45
2016-02-26T11:44:55.668Z,45
2016-02-26T11:45:56.296Z,45
2016-02-26T11:46:55.690Z,45
2016-02-26T11:47:55.599Z,50
2016-02-26T11:48:55.586Z,50
2016-02-26T11:49:55.650Z,55
2016-02-26T11:50:55.545Z,55
2016-02-26T11:51:55.531Z,60
2016-02-26T11:52:55.487Z,60
2016-02-26T11:53:55.475Z,65
2016-02-26T11:54:55.462Z,65
2016-02-26T11:55:55.433Z,60
2016-02-26T11:56:55.404Z,60
2016-02-26T11:57:55.391Z,65
2016-02-26T11:58:55.378Z,55
2016-02-26T11:59:55.319Z,50
2016-02-26T12:00:55.571Z,60
2016-02-26T12:01:55.324Z,50
2016-02-26T12:02:55.264Z,45
2016-02-26T12:03:55.282Z,50
2016-02-26T12:04:55.238Z,60
2016-02-26T12:05:55.350Z,65
2016-02-26T12:06:55.181Z,70
2016-02-26T12:07:55.168Z,70
2016-02-26T12:08:55.124Z,65
2016-02-26T12:09:55.126Z,65
2016-02-26T12:10:55.113Z,70
2016-02-26T12:11:55.069Z,65
2016-02-26T12:12:55.040Z,65
2016-02-26T12:13:55.028Z,65
2016-02-26T12:14:54.999Z,70
2016-02-26T12:15:54.971Z,70
2016-02-26T12:16:55.442Z,70
2016-02-26T12:17:54.945Z,60
2016-02-26T12:18:54.917Z,55
2016-02-26T12:19:54.903Z,55
2016-02-26T12:20:54.875Z,50
2016-02-26T12:21:54.846Z,45
2016-02-26T12:22:54.817Z,45
2016-02-26T12:23:54.789Z,40
2016-02-26T12:24:54.854Z,40
2016-02-26T12:25:54.779Z,40
2016-02-26T12:26:54.750Z,40
2016-02-26T12:27:54.753Z,40
2016-02-26T12:28:54.694Z,35
2016-02-26T12:29:54.664Z,35
2016-02-26T12:30:54.652Z,35
2016-02-26T12:31:54.639Z,35
2016-02-26T12:32:54.592Z,35
2016-02-26T12:33:54.580Z,35
2016-02-26T12:34:54.597Z,35
2016-02-26T12:35:54.538Z,40
2016-02-26T12:36:54.555Z,35
2016-02-26T12:37:54.511Z,40
2016-02-26T12:38:54.530Z,45
2016-02-26T12:39:54.455Z,45
2016-02-26T12:40:54.426Z,45
2016-02-26T12:41:54.413Z,45
2016-02-26T12:42:54.385Z,45
2016-02-26T12:43:54.341Z,40
2016-02-26T12:44:54.359Z,40
2016-02-26T12:45:54.299Z,35
2016-02-26T12:46:54.442Z,35
2016-02-26T12:47:54.242Z,35
2016-02-26T12:48:54.245Z,30
2016-02-26T12:49:54.215Z,30
2016-02-26T12:50:54.187Z,30
2016-02-26T12:51:54.440Z,30
2016-02-26T12:52:54.162Z,25
2016-02-26T12:53:54.117Z,25
2016-02-26T12:54:54.104Z,30
2016-02-26T12:55:54.076Z,30
2016-02-26T12:56:54.094Z,30
2016-02-26T12:57:54.284Z,30
2016-02-26T12:58:54.022Z,25
2016-02-26T12:59:53.992Z,25
2016-02-26T13:00:53.995Z,25
2016-02-26T13:01:53.951Z,25
2016-02-26T13:02:54.110Z,20
2016-02-26T13:03:53.895Z,20
2016-02-26T13:04:53.896Z,20
2016-02-26T13:05:53.868Z,20
2016-02-26T13:06:53.964Z,15
2016-02-26T13:07:53.827Z,15
2016-02-26T13:08:54.391Z,15
2016-02-26T13:09:53.754Z,15
2016-02-26T13:10:53.741Z,15
2016-02-26T13:11:53.774Z,15
2016-02-26T13:12:53.684Z,15
2016-02-26T13:13:53.530Z,15
2016-02-26T13:14:53.626Z,15
2016-02-26T13:15:53.660Z,15
2016-02-26T13:16:53.601Z,15
2016-02-26T13:17:53.557Z,15
2016-02-26T13:18:53.559Z,15
2016-02-26T13:19:53.516Z,10
2016-02-26T13:20:53.518Z,10
2016-02-26T13:21:53.458Z,10
2016-02-26T13:22:53.445Z,10
2016-02-26T13:23:53.447Z,10
2016-02-26T13:24:53.435Z,10
2016-02-26T13:25:53.375Z,10
2016-02-26T13:26:53.362Z,10
2016-02-26T13:27:53.349Z,10
2016-02-26T13:28:53.336Z,10
2016-02-26T13:29:53.309Z,10
2016-02-26T13:30:53.295Z,10
2016-02-26T13:31:53.250Z,10
2016-02-26T13:32:53.253Z,15
2016-02-26T13:33:53.194Z,15
2016-02-26T13:34:53.165Z,15
2016-02-26T13:35:53.168Z,20
2016-02-26T13:36:53.124Z,20
2016-02-26T13:37:53.127Z,25
2016-02-26T13:38:53.082Z,25
2016-02-26T13:39:53.100Z,25
2016-02-26T13:40:53.056Z,25
2016-02-26T13:41:53.013Z,25
2016-02-26T13:42:52.843Z,25
2016-02-26T13:43:53.194Z,30
2016-02-26T13:44:52.993Z,30
2016-02-26T13:45:52.918Z,30
2016-02-26T13:46:52.890Z,35
2016-02-26T13:47:52.908Z,35
2016-02-26T13:48:52.864Z,35
2016-02-26T13:49:52.851Z,30
2016-02-26T13:50:52.822Z,30
2016-02-26T13:51:52.778Z,30
2016-02-26T13:52:52.751Z,30
2016-02-26T13:53:52.753Z,30
2016-02-26T13:54:53.037Z,30
2016-02-26T13:55:52.680Z,35
2016-02-26T13:56:52.667Z,35
2016-02-26T13:57:52.654Z,35
2016-02-26T13:58:52.610Z,35
2016-02-26T13:59:52.800Z,35
2016-02-26T14:00:52.600Z,35
2016-02-26T14:01:52.540Z,35
2016-02-26T14:02:52.542Z,35
2016-02-26T14:03:52.498Z,35
2016-02-26T14:04:52.564Z,35
2016-02-26T14:05:52.456Z,35
2016-02-26T14:06:52.444Z,35
2016-02-26T14:07:52.431Z,30
2016-02-26T14:08:52.387Z,30
2016-02-26T14:09:52.514Z,30
2016-02-26T14:10:52.345Z,30
2016-02-26T14:11:52.333Z,30
2016-02-26T14:12:52.288Z,30
2016-02-26T14:13:52.135Z,30
2016-02-26T14:14:52.263Z,30
2016-02-26T14:15:52.233Z,30
2016-02-26T14:16:52.204Z,30
2016-02-26T14:17:52.207Z,30
2016-02-26T14:18:52.148Z,30
2016-02-26T14:19:52.134Z,30
2016-02-26T14:20:52.153Z,30
2016-02-26T14:21:52.078Z,30
2016-02-26T14:22:52.081Z,30
2016-02-26T14:23:52.067Z,30
2016-02-26T14:24:52.024Z,30
2016-02-26T14:25:52.010Z,30
2016-02-26T14:26:51.951Z,30
2016-02-26T14:27:51.937Z,25
2016-02-26T14:28:51.909Z,25
2016-02-26T14:29:52.083Z,25
2016-02-26T14:30:51.883Z,25